Time;durP1;ratioP1;P1;durP2;ratioP2;P2;SDS_P1;SDS_P2;PMS_P1;PMS_P2;Temp;Humidity;BMP_temperature;BMP_pressure;BME280_temperature;BME280_humidity;BME280_pressure;Samples;Min_cycle;Max_cycle;Signal;HPM_P1;HPM_P2
2022/04/29 00:00:00;;;;;;;1008.55;941.97;;;;;;;11.45;51.62;102446.56;685070;28;69878;-69
2022/04/29 00:00:22;;;;;;;1002.40;936.13;;;;;;;11.48;51.70;102449.84;686503;28;22396;-70
2022/04/29 00:00:45;;;;;;;1021.92;954.78;;;;;;;11.49;51.82;102451.56;683962;28;70328;-70
2022/04/29 00:01:06;;;;;;;1036.78;969.05;;;;;;;11.47;51.94;102448.16;684121;28;69311;-69
2022/04/29 00:01:27;;;;;;;1035.50;967.67;;;;;;;11.46;52.05;102442.88;684358;28;21526;-70
2022/04/29 00:01:48;;;;;;;1011.22;944.63;;;;;;;11.48;52.00;102440.88;685637;28;24571;-70
2022/04/29 00:02:10;;;;;;;992.88;927.15;;;;;;;11.46;51.73;102438.31;685653;28;21517;-70
2022/04/29 00:02:32;;;;;;;989.97;924.17;;;;;;;11.45;51.87;102443.88;684981;28;46386;-70
2022/04/29 00:02:53;;;;;;;1008.53;942.00;;;;;;;11.43;51.69;102452.13;684699;28;46273;-70
2022/04/29 00:03:15;;;;;;;995.65;929.55;;;;;;;11.40;51.74;102441.59;684842;28;21558;-69
2022/04/29 00:03:37;;;;;;;982.42;916.95;;;;;;;11.42;51.85;102445.00;684791;28;44359;-69
2022/04/29 00:03:59;;;;;;;990.63;924.75;;;;;;;11.41;52.11;102446.00;684160;28;46259;-69
2022/04/29 00:04:21;;;;;;;990.38;924.60;;;;;;;11.42;51.96;102449.56;684710;28;45290;-70
2022/04/29 00:04:42;;;;;;;999.72;933.72;;;;;;;11.42;52.06;102449.56;684959;28;46142;-70
2022/04/29 00:05:05;;;;;;;994.05;928.15;;;;;;;11.41;51.91;102443.31;685125;28;23416;-70
2022/04/29 00:05:26;;;;;;;984.97;919.40;;;;;;;11.43;52.16;102445.88;683870;28;69403;-70
2022/04/29 00:05:48;;;;;;;995.35;929.38;;;;;;;11.43;51.90;102445.88;685434;28;22355;-70
2022/04/29 00:06:10;;;;;;;1009.08;942.53;;;;;;;11.42;51.68;102441.44;684863;28;44358;-70
2022/04/29 00:06:31;;;;;;;1023.03;955.72;;;;;;;11.45;51.72;102446.56;683815;28;47045;-70
2022/04/29 00:06:52;;;;;;;1022.70;955.33;;;;;;;11.44;51.66;102447.56;685495;28;22489;-70
2022/04/29 00:07:13;;;;;;;1026.63;959.15;;;;;;;11.45;51.93;102447.41;685375;28;23400;-70
2022/04/29 00:07:39;;;;;;;1020.33;953.13;;;;;;;11.46;52.15;102442.88;686324;28;1867;-69
2022/04/29 00:08:00;;;;;;;1019.08;951.92;;;;;;;11.43;51.82;102446.72;681894;28;138925;-69
2022/04/29 00:08:21;;;;;;;1021.28;954.05;;;;;;;11.38;52.04;102440.88;687542;28;2038;-70
2022/04/29 00:08:43;;;;;;;1017.05;950.08;;;;;;;11.42;52.01;102442.28;688475;28;22392;-71
2022/04/29 00:09:06;;;;;;;1008.63;942.13;;;;;;;11.41;51.86;102440.59;686584;28;69520;-70
2022/04/29 00:09:27;;;;;;;996.53;930.53;;;;;;;11.39;51.94;102444.44;688498;28;1591;-70
2022/04/29 00:09:48;;;;;;;997.97;931.90;;;;;;;11.39;51.89;102441.72;687017;28;23525;-70
2022/04/29 00:10:12;;;;;;;995.75;929.83;;;;;;;11.36;52.09;102440.16;687406;28;22397;-70
2022/04/29 00:10:35;;;;;;;986.92;921.30;;;;;;;11.37;51.95;102441.88;684377;28;60624;-70
2022/04/29 00:10:56;;;;;;;1002.17;936.00;;;;;;;11.35;52.10;102441.16;684671;28;46085;-70
2022/04/29 00:11:18;;;;;;;998.67;932.58;;;;;;;11.34;52.10;102442.16;685245;28;22397;-70
2022/04/29 00:11:40;;;;;;;1005.17;938.80;;;;;;;11.32;52.23;102438.72;683104;28;67420;-70
2022/04/29 00:12:03;;;;;;;1033.90;966.20;;;;;;;11.33;52.47;102446.72;684568;28;44376;-70
2022/04/29 00:12:25;;;;;;;1018.88;951.72;;;;;;;11.32;52.27;102436.03;684095;28;70303;-70
2022/04/29 00:12:49;;;;;;;1018.58;951.50;;;;;;;11.34;52.08;102439.44;684833;28;46290;-70
2022/04/29 00:13:14;;;;;;;1000.08;933.75;;;;;;;11.30;52.22;102438.88;683096;28;69290;-69
2022/04/29 00:13:35;;;;;;;999.00;932.83;;;;;;;11.33;52.14;102440.44;681427;28;137889;-70
2022/04/29 00:13:57;;;;;;;993.95;928.00;;;;;;;11.32;52.31;102447.69;685355;28;21671;-69
2022/04/29 00:14:18;;;;;;;1002.53;936.20;;;;;;;11.30;52.38;102444.28;684622;28;46804;-70
2022/04/29 00:14:39;;;;;;;990.83;924.92;;;;;;;11.31;52.21;102445.97;685686;28;22371;-70
2022/04/29 00:15:01;;;;;;;986.10;920.53;;;;;;;11.30;52.29;102443.41;685385;28;22261;-69
2022/04/29 00:15:23;;;;;;;991.33;925.42;;;;;;;11.28;52.15;102443.53;685466;28;23487;-70
2022/04/29 00:15:44;;;;;;;998.75;932.70;;;;;;;11.26;52.08;102440.13;684695;28;47649;-70
2022/04/29 00:16:05;;;;;;;993.50;927.70;;;;;;;11.26;52.45;102442.00;684984;28;45267;-70
2022/04/29 00:16:26;;;;;;;988.13;922.47;;;;;;;11.25;52.35;102443.81;684271;28;22384;-70
2022/04/29 00:16:47;;;;;;;985.15;919.55;;;;;;;11.25;52.11;102448.41;685123;28;22386;-70
2022/04/29 00:17:10;;;;;;;991.78;925.92;;;;;;;11.23;52.44;102437.72;684556;28;45184;-70
2022/04/29 00:17:32;;;;;;;998.70;932.53;;;;;;;11.22;52.31;102445.97;683876;28;47336;-70
2022/04/29 00:17:53;;;;;;;996.50;930.60;;;;;;;11.21;52.19;102442.41;684631;28;46305;-70
2022/04/29 00:18:15;;;;;;;1000.65;934.60;;;;;;;11.21;52.15;102441.53;685034;28;22376;-69
2022/04/29 00:18:37;;;;;;;1000.50;934.35;;;;;;;11.20;52.74;102442.56;684496;28;46202;-70
2022/04/29 00:18:58;;;;;;;990.00;924.20;;;;;;;11.18;52.56;102443.53;685315;28;22394;-70
2022/04/29 00:19:19;;;;;;;992.47;926.55;;;;;;;11.17;52.75;102441.84;685803;28;20848;-69
2022/04/29 00:19:41;;;;;;;1000.35;934.15;;;;;;;11.15;52.63;102442.97;685414;28;21382;-69
2022/04/29 00:20:03;;;;;;;992.13;926.17;;;;;;;11.14;52.57;102447.53;683881;28;46326;-69
2022/04/29 00:20:25;;;;;;;1015.92;948.97;;;;;;;11.12;52.70;102443.25;683888;28;69521;-69
2022/04/29 00:20:51;;;;;;;1039.97;972.08;;;;;;;11.11;52.74;102446.94;685782;28;21481;-70
2022/04/29 00:21:12;;;;;;;1014.90;948.20;;;;;;;11.10;53.15;102442.53;681373;28;136385;-70
2022/04/29 00:21:33;;;;;;;1004.75;938.42;;;;;;;11.07;52.83;102449.06;684842;28;22374;-70
2022/04/29 00:21:54;;;;;;;1035.90;967.97;;;;;;;11.07;53.02;102435.56;685806;28;1584;-70
2022/04/29 00:22:15;;;;;;;1064.95;995.55;;;;;;;11.05;52.74;102440.25;685276;28;23481;-70
2022/04/29 00:22:36;;;;;;;1024.30;956.85;;;;;;;11.08;52.89;102445.38;685559;28;22362;-70
2022/04/29 00:22:59;;;;;;;1001.88;935.58;;;;;;;11.08;52.81;102444.50;685320;28;23501;-70
2022/04/29 00:23:21;;;;;;;1007.10;940.55;;;;;;;11.03;53.04;102434.09;686267;28;2658;-70
2022/04/29 00:23:42;;;;;;;993.60;927.75;;;;;;;11.06;52.69;102441.94;685663;28;23425;-70
2022/04/29 00:24:03;;;;;;;981.60;916.22;;;;;;;11.05;52.82;102442.97;685627;28;22388;-70
2022/04/29 00:24:27;;;;;;;991.35;925.45;;;;;;;11.07;53.04;102438.25;685662;28;19614;-70
2022/04/29 00:24:48;;;;;;;998.03;931.75;;;;;;;11.03;52.99;102442.22;684140;28;68405;-70
2022/04/29 00:25:09;;;;;;;1003.50;937.03;;;;;;;11.05;53.11;102450.19;685006;28;23546;-70
2022/04/29 00:25:30;;;;;;;1000.85;934.58;;;;;;;11.04;53.07;102448.50;685612;28;23452;-70
2022/04/29 00:25:52;;;;;;;1001.33;935.20;;;;;;;11.02;53.09;102445.94;686009;28;22492;-69
2022/04/29 00:26:13;;;;;;;995.47;929.45;;;;;;;11.01;53.01;102444.22;684844;28;44490;-70
2022/04/29 00:26:37;;;;;;;987.20;921.38;;;;;;;11.02;53.09;102440.53;687432;28;5201;-70
2022/04/29 00:26:58;;;;;;;983.20;917.60;;;;;;;11.02;52.88;102450.47;687183;28;44706;-70
2022/04/29 00:27:19;;;;;;;986.45;920.78;;;;;;;10.97;52.97;102446.34;687605;28;22320;-70
2022/04/29 00:27:41;;;;;;;981.28;915.88;;;;;;;10.99;53.00;102446.22;685411;28;22480;-69
2022/04/29 00:28:03;;;;;;;995.78;929.72;;;;;;;10.99;52.71;102447.06;686629;28;46575;-70
2022/04/29 00:28:25;;;;;;;977.57;912.20;;;;;;;10.95;53.06;102436.66;688560;28;11145;-69
2022/04/29 00:28:55;;;;;;;997.85;931.70;;;;;;;10.96;53.07;102441.09;686802;28;60929;-70
2022/04/29 00:29:17;;;;;;;982.83;917.33;;;;;;;10.93;53.08;102438.66;687109;28;47105;-70
2022/04/29 00:29:38;;;;;;;989.55;923.53;;;;;;;10.93;52.87;102444.91;690234;28;13343;-70
2022/04/29 00:29:59;;;;;;;987.72;921.83;;;;;;;10.92;52.91;102436.94;685376;28;22336;-70
2022/04/29 00:30:21;;;;;;;998.85;932.63;;;;;;;10.97;52.82;102448.19;682658;28;21997;-70
2022/04/29 00:30:42;;;;;;;990.47;924.72;;;;;;;10.91;53.19;102446.91;681147;28;45247;-69
2022/04/29 00:31:03;;;;;;;988.55;922.90;;;;;;;10.93;53.17;102446.75;681524;28;45334;-70
2022/04/29 00:31:25;;;;;;;986.83;921.13;;;;;;;10.94;53.17;102453.84;681914;28;21069;-69
2022/04/29 00:31:47;;;;;;;991.70;925.78;;;;;;;10.94;52.99;102451.16;683591;28;21521;-70
2022/04/29 00:32:08;;;;;;;995.33;929.20;;;;;;;10.92;52.73;102445.88;687134;28;46410;-70
2022/04/29 00:32:29;;;;;;;995.15;929.03;;;;;;;10.92;52.78;102445.03;688148;28;22410;-70
2022/04/29 00:32:51;;;;;;;981.20;915.72;;;;;;;10.90;52.78;102453.28;685344;28;21439;-69
2022/04/29 00:33:12;;;;;;;979.50;914.00;;;;;;;10.89;52.74;102448.00;683902;28;46405;-70
2022/04/29 00:33:33;;;;;;;983.45;917.78;;;;;;;10.87;53.10;102456.25;685892;28;22426;-70
2022/04/29 00:33:54;;;;;;;997.92;931.83;;;;;;;10.86;52.93;102448.28;686667;28;46795;-70
2022/04/29 00:34:15;;;;;;;1002.65;936.25;;;;;;;10.84;53.16;102456.53;682578;28;21524;-70
2022/04/29 00:34:37;;;;;;;984.88;919.15;;;;;;;10.81;53.21;102448.69;683029;28;22365;-70
2022/04/29 00:35:00;;;;;;;990.80;924.78;;;;;;;10.78;52.99;102449.84;683124;28;69423;-69
2022/04/29 00:35:22;;;;;;;1002.28;935.97;;;;;;;10.73;53.12;102446.69;684658;28;46313;-70
2022/04/29 00:35:44;;;;;;;991.25;925.38;;;;;;;10.75;53.28;102449.25;685081;28;44424;-70
2022/04/29 00:36:05;;;;;;;996.67;930.55;;;;;;;10.70;53.24;102449.66;684460;28;44422;-69
2022/04/29 00:36:26;;;;;;;1001.95;935.60;;;;;;;10.70;53.10;102452.34;685744;28;5366;-69
2022/04/29 00:36:47;;;;;;;994.72;928.58;;;;;;;10.66;53.16;102445.53;683263;28;22242;-70
2022/04/29 00:37:10;;;;;;;989.92;924.05;;;;;;;10.69;53.27;102449.78;680322;29;46797;-70
2022/04/29 00:37:32;;;;;;;990.47;924.60;;;;;;;10.64;53.12;102440.25;680744;28;46294;-70
2022/04/29 00:37:54;;;;;;;1000.55;934.33;;;;;;;10.67;53.45;102451.78;682181;28;44367;-70
2022/04/29 00:38:17;;;;;;;988.22;922.55;;;;;;;10.66;53.27;102450.06;677857;28;69407;-69
2022/04/29 00:38:38;;;;;;;996.85;930.80;;;;;;;10.63;53.56;102452.03;680807;28;44416;-70
2022/04/29 00:39:00;;;;;;;999.85;933.70;;;;;;;10.65;53.37;102449.22;681542;28;22328;-70
2022/04/29 00:39:23;;;;;;;992.53;926.60;;;;;;;10.62;53.47;102444.06;679315;28;69804;-69
2022/04/29 00:39:46;;;;;;;1002.50;936.13;;;;;;;10.63;53.39;102449.34;679125;29;45323;-69
2022/04/29 00:40:12;;;;;;;1006.00;939.58;;;;;;;10.57;53.68;102436.38;679804;28;70179;-69
2022/04/29 00:40:34;;;;;;;996.03;929.97;;;;;;;10.62;53.52;102450.31;676280;28;160607;-69
2022/04/29 00:40:56;;;;;;;997.85;931.75;;;;;;;10.59;53.49;102439.78;675629;29;67388;-68
2022/04/29 00:41:17;;;;;;;992.05;926.17;;;;;;;10.61;53.58;102442.34;675604;29;22410;-69
2022/04/29 00:41:38;;;;;;;987.83;922.00;;;;;;;10.64;53.76;102448.38;673639;29;67272;-68
2022/04/29 00:41:59;;;;;;;992.92;926.97;;;;;;;10.66;53.60;102447.34;677052;29;21407;-69
2022/04/29 00:42:22;;;;;;;991.88;925.95;;;;;;;10.66;53.84;102448.22;681436;28;23359;-69
2022/04/29 00:42:45;;;;;;;994.38;928.28;;;;;;;10.66;53.75;102450.94;679976;28;69425;-69
2022/04/29 00:43:06;;;;;;;987.40;921.65;;;;;;;10.67;53.64;102451.78;684159;28;44381;-68
2022/04/29 00:43:27;;;;;;;996.05;929.92;;;;;;;10.65;53.64;102454.63;685331;28;23220;-69
2022/04/29 00:43:59;;;;;;;991.25;925.33;;;;;;;10.65;53.43;102449.22;685046;28;45226;-69
2022/04/29 00:44:20;;;;;;;1003.80;937.40;;;;;;;10.64;53.42;102452.91;682056;28;139227;-69
2022/04/29 00:44:42;;;;;;;997.00;930.83;;;;;;;10.62;53.54;102450.31;687921;28;21516;-69
2022/04/29 00:45:04;;;;;;;990.25;924.45;;;;;;;10.61;53.52;102440.53;687350;28;46322;-69
2022/04/29 00:45:26;;;;;;;997.80;931.72;;;;;;;10.62;53.76;102446.78;687279;28;44102;-68
2022/04/29 00:45:48;;;;;;;992.67;926.83;;;;;;;10.64;53.70;102448.38;685566;28;46641;-69
2022/04/29 00:46:09;;;;;;;994.30;928.35;;;;;;;10.66;53.68;102455.47;684963;28;36516;-68
2022/04/29 00:46:33;;;;;;;995.30;929.20;;;;;;;10.66;53.74;102450.06;684839;28;23781;-68
2022/04/29 00:46:55;;;;;;;998.50;932.35;;;;;;;10.67;53.78;102444.50;682758;28;89398;-68
2022/04/29 00:47:18;;;;;;;1002.20;935.92;;;;;;;10.63;53.61;102445.78;681495;28;46316;-69
2022/04/29 00:47:39;;;;;;;1004.30;937.97;;;;;;;10.63;53.53;102449.34;679268;29;69414;-68
2022/04/29 00:48:01;;;;;;;1000.38;934.20;;;;;;;10.63;53.48;102446.66;680603;29;46311;-69
2022/04/29 00:48:23;;;;;;;1009.47;942.85;;;;;;;10.60;53.57;102446.06;680938;28;21530;-69
2022/04/29 00:48:44;;;;;;;993.03;927.08;;;;;;;10.60;53.37;102449.63;681353;28;47252;-69
2022/04/29 00:49:07;;;;;;;999.05;932.92;;;;;;;10.59;53.64;102447.91;681957;28;22298;-69
2022/04/29 00:49:28;;;;;;;1001.05;934.70;;;;;;;10.55;53.68;102438.38;681133;28;93005;-69
2022/04/29 00:49:51;;;;;;;1005.63;939.17;;;;;;;10.59;53.63;102449.75;685830;28;24577;-69
2022/04/29 00:50:24;;;;;;;997.45;931.35;;;;;;;10.59;53.82;102450.59;687436;28;43334;-68
2022/04/29 00:50:46;;;;;;;998.05;931.92;;;;;;;10.58;53.61;102448.91;684398;28;137173;-69
2022/04/29 00:51:07;;;;;;;998.15;932.13;;;;;;;10.57;53.99;102451.75;688766;28;23463;-69
2022/04/29 00:51:29;;;;;;;1005.85;939.40;;;;;;;10.53;54.24;102445.75;688064;28;21536;-68
2022/04/29 00:51:51;;;;;;;1008.60;941.95;;;;;;;10.52;54.24;102448.59;686914;28;45398;-69
2022/04/29 00:52:14;;;;;;;1012.03;945.33;;;;;;;10.47;54.04;102440.91;682605;28;45261;-68
2022/04/29 00:52:36;;;;;;;1009.78;943.28;;;;;;;10.48;54.29;102448.00;682012;28;68292;-68
2022/04/29 00:53:10;;;;;;;1004.40;938.13;;;;;;;10.45;54.46;102443.72;682035;28;59215;-68
2022/04/29 00:53:31;;;;;;;999.03;932.78;;;;;;;10.47;53.96;102446.31;678562;28;67451;-69
2022/04/29 00:53:54;;;;;;;988.88;923.05;;;;;;;10.42;54.31;102441.31;685980;28;20841;-69
2022/04/29 00:54:21;;;;;;;998.97;932.65;;;;;;;10.42;54.15;102443.13;686140;28;90758;-68
2022/04/29 00:54:50;;;;;;;996.20;930.13;;;;;;;10.41;54.58;102447.69;684246;28;138018;-69
2022/04/29 00:55:12;;;;;;;995.42;929.42;;;;;;;10.39;54.43;102448.78;680871;28;138929;-69
2022/04/29 00:55:34;;;;;;;1002.45;936.10;;;;;;;10.37;54.55;102443.53;681757;28;46237;-69
2022/04/29 00:55:58;;;;;;;1004.80;938.40;;;;;;;10.38;54.55;102449.81;680723;28;46321;-69
2022/04/29 00:56:21;;;;;;;1001.92;935.67;;;;;;;10.35;54.29;102442.81;677668;28;92237;-68
2022/04/29 00:56:42;;;;;;;1013.45;946.72;;;;;;;10.34;54.71;102445.66;681377;28;69294;-68
2022/04/29 00:57:07;;;;;;;1011.80;945.15;;;;;;;10.33;54.60;102443.91;686503;28;46378;-68
2022/04/29 00:57:45;;;;;;;1009.05;942.35;;;;;;;10.34;54.58;102445.66;687526;28;92249;-69
2022/04/29 00:58:12;;;;;;;1004.13;937.80;;;;;;;10.33;54.77;102447.50;686863;28;137668;-69
2022/04/29 00:58:37;;;;;;;997.30;931.10;;;;;;;10.32;54.62;102443.03;683500;28;161109;-69
2022/04/29 00:59:03;;;;;;;996.65;930.47;;;;;;;10.37;54.96;102453.47;681057;28;113293;-69
2022/04/29 00:59:26;;;;;;;1009.78;943.17;;;;;;;10.37;54.73;102442.69;677553;29;138112;-69
2022/04/29 00:59:56;;;;;;;1001.55;935.20;;;;;;;10.38;54.65;102444.41;678257;29;92300;-68
2022/04/29 01:00:18;;;;;;;1007.08;940.65;;;;;;;10.35;54.27;102445.50;677776;28;137414;-69
2022/04/29 01:00:41;;;;;;;1002.03;935.72;;;;;;;10.36;54.87;102444.53;681112;28;92254;-69
2022/04/29 01:01:04;;;;;;;995.63;929.65;;;;;;;10.36;54.90;102438.25;686090;28;22364;-69
2022/04/29 01:01:26;;;;;;;998.10;931.97;;;;;;;10.36;55.01;102444.53;686110;28;67463;-69
2022/04/29 01:01:47;;;;;;;998.45;932.28;;;;;;;10.36;54.62;102447.25;687268;28;67227;-70
2022/04/29 01:02:10;;;;;;;1003.33;936.95;;;;;;;10.37;54.62;102442.69;687463;28;22399;-69
2022/04/29 01:02:32;;;;;;;998.45;932.25;;;;;;;10.36;54.70;102444.53;684890;28;69409;-68
2022/04/29 01:02:54;;;;;;;1000.28;934.05;;;;;;;10.36;54.71;102441.84;686138;28;22194;-69
2022/04/29 01:03:15;;;;;;;1001.20;934.88;;;;;;;10.35;54.80;102450.91;684832;28;46409;-69
2022/04/29 01:03:38;;;;;;;995.88;929.80;;;;;;;10.34;54.81;102441.09;684512;28;45417;-68
2022/04/29 01:04:00;;;;;;;999.95;933.72;;;;;;;10.32;54.86;102443.03;684317;28;66630;-69
2022/04/29 01:04:25;;;;;;;998.90;932.70;;;;;;;10.29;55.07;102444.16;686713;28;1761;-69
2022/04/29 01:05:03;;;;;;;994.53;928.45;;;;;;;10.25;54.97;102429.22;680524;28;115106;-69
2022/04/29 01:05:25;;;;;;;1007.38;940.85;;;;;;;10.22;54.95;102436.72;680459;28;137545;-69
2022/04/29 01:05:48;;;;;;;1004.15;937.65;;;;;;;10.26;54.99;102444.41;684923;28;69428;-69
2022/04/29 01:06:10;;;;;;;1006.53;940.13;;;;;;;10.26;55.13;102440.88;687398;28;69423;-68
2022/04/29 01:06:32;;;;;;;1000.47;934.28;;;;;;;10.26;55.00;102452.53;685787;28;45266;-68
2022/04/29 01:06:53;;;;;;;993.35;927.42;;;;;;;10.26;55.25;102443.56;686445;28;22393;-69
2022/04/29 01:07:14;;;;;;;998.63;932.50;;;;;;;10.25;55.02;102442.72;684343;28;21568;-68
2022/04/29 01:07:37;;;;;;;996.45;930.40;;;;;;;10.26;55.22;102444.41;681487;28;22399;-69
2022/04/29 01:07:58;;;;;;;997.72;931.70;;;;;;;10.23;55.13;102444.69;679576;29;69215;-69
2022/04/29 01:08:20;;;;;;;999.53;933.33;;;;;;;10.26;55.03;102443.56;678574;29;45212;-69
2022/04/29 01:08:42;;;;;;;985.05;919.38;;;;;;;10.24;55.03;102441.00;682489;28;22395;-69
2022/04/29 01:09:04;;;;;;;992.70;926.70;;;;;;;10.25;55.04;102442.72;680368;28;69417;-69
2022/04/29 01:09:25;;;;;;;1001.08;934.75;;;;;;;10.27;55.25;102451.53;680748;28;22416;-69
2022/04/29 01:09:47;;;;;;;989.08;923.08;;;;;;;10.29;55.10;102444.16;680406;29;23489;-69
2022/04/29 01:10:10;;;;;;;977.25;911.83;;;;;;;10.31;54.98;102445.88;679046;28;67296;-69
2022/04/29 01:10:33;;;;;;;994.20;927.97;;;;;;;10.30;55.04;102442.34;681803;28;67063;-68
2022/04/29 01:10:54;;;;;;;993.42;927.33;;;;;;;10.32;55.16;102450.31;680541;28;45268;-68
2022/04/29 01:11:15;;;;;;;999.22;933.03;;;;;;;10.33;55.04;102443.91;684058;28;23509;-69
2022/04/29 01:11:37;;;;;;;1004.42;938.08;;;;;;;10.34;55.01;102442.94;681490;28;46415;-69
2022/04/29 01:11:59;;;;;;;1006.08;939.60;;;;;;;10.31;55.01;102446.72;685090;28;44138;-69
2022/04/29 01:12:21;;;;;;;1003.35;936.85;;;;;;;10.33;54.88;102439.41;684315;28;46192;-69
2022/04/29 01:12:44;;;;;;;996.95;930.78;;;;;;;10.34;54.64;102448.34;680379;29;22369;-69
2022/04/29 01:13:06;;;;;;;990.33;924.45;;;;;;;10.36;54.81;102436.44;679011;28;69262;-69
2022/04/29 01:13:27;;;;;;;979.25;913.78;;;;;;;10.35;54.79;102450.06;684138;28;46418;-69
2022/04/29 01:13:49;;;;;;;986.78;921.15;;;;;;;10.29;54.59;102435.22;682666;28;22388;-68
2022/04/29 01:14:10;;;;;;;996.40;930.22;;;;;;;10.34;54.69;102443.78;682911;28;46390;-69
2022/04/29 01:14:34;;;;;;;985.30;919.55;;;;;;;10.32;54.95;102436.81;686200;28;22377;-69
2022/04/29 01:14:56;;;;;;;988.38;922.55;;;;;;;10.33;54.93;102447.50;680976;28;91458;-69
2022/04/29 01:15:18;;;;;;;983.72;918.13;;;;;;;10.34;55.08;102441.09;681516;28;45210;-69
2022/04/29 01:15:40;;;;;;;990.03;924.20;;;;;;;10.33;55.00;102444.81;679645;29;46396;-69
2022/04/29 01:16:02;;;;;;;989.85;924.08;;;;;;;10.34;54.70;102441.09;678885;29;69192;-69
2022/04/29 01:16:23;;;;;;;987.33;921.50;;;;;;;10.33;54.64;102444.81;679948;28;23592;-69
2022/04/29 01:16:46;;;;;;;988.95;923.05;;;;;;;10.32;55.14;102437.66;684274;28;22410;-69
2022/04/29 01:17:07;;;;;;;992.80;926.85;;;;;;;10.31;54.89;102440.47;685291;28;70315;-69
2022/04/29 01:17:30;;;;;;;988.60;922.80;;;;;;;10.28;54.97;102434.38;684137;28;21482;-68
2022/04/29 01:17:54;;;;;;;985.45;919.78;;;;;;;10.27;55.16;102434.50;680603;28;67479;-69
2022/04/29 01:18:17;;;;;;;994.20;928.13;;;;;;;10.24;55.16;102435.59;680527;28;92247;-69
2022/04/29 01:18:38;;;;;;;999.42;933.03;;;;;;;10.25;54.55;102437.34;678471;28;69689;-69
2022/04/29 01:18:59;;;;;;;996.33;930.17;;;;;;;10.24;55.00;102446.41;679252;29;46390;-69
2022/04/29 01:19:20;;;;;;;986.97;921.08;;;;;;;10.23;55.15;102443.84;680480;29;18670;-69
2022/04/29 01:19:42;;;;;;;1000.15;933.67;;;;;;;10.21;55.14;102437.72;679207;29;21529;-69
2022/04/29 01:20:06;;;;;;;987.45;921.67;;;;;;;10.24;54.92;102440.16;680593;28;44360;-69
2022/04/29 01:20:29;;;;;;;991.72;925.83;;;;;;;10.23;54.80;102438.44;678733;29;93542;-68
2022/04/29 01:21:00;;;;;;;988.30;922.63;;;;;;;10.25;55.12;102441.84;683122;28;70199;-69
2022/04/29 01:21:22;;;;;;;988.28;922.35;;;;;;;10.25;55.31;102447.25;681733;28;111731;-69
2022/04/29 01:21:43;;;;;;;990.75;924.72;;;;;;;10.24;54.93;102442.88;686686;28;44164;-69
2022/04/29 01:22:08;;;;;;;991.85;925.80;;;;;;;10.26;55.05;102443.56;687942;28;22449;-69
2022/04/29 01:22:30;;;;;;;990.40;924.35;;;;;;;10.25;54.86;102442.72;682138;28;115222;-69
2022/04/29 01:22:53;;;;;;;982.45;916.72;;;;;;;10.24;54.84;102435.59;680385;28;45429;-69
2022/04/29 01:23:14;;;;;;;997.00;930.83;;;;;;;10.28;54.89;102442.47;679936;28;68287;-69
2022/04/29 01:23:35;;;;;;;995.67;929.47;;;;;;;10.28;54.95;102442.47;683303;28;23321;-68
2022/04/29 01:23:56;;;;;;;982.13;916.60;;;;;;;10.28;54.90;102436.19;683221;28;22402;-68
2022/04/29 01:24:18;;;;;;;992.85;926.97;;;;;;;10.28;54.98;102437.06;680889;28;23729;-69
2022/04/29 01:24:39;;;;;;;1004.63;938.13;;;;;;;10.28;54.84;102444.28;685132;28;45271;-69
2022/04/29 01:25:11;;;;;;;997.53;931.28;;;;;;;10.28;54.90;102439.75;685627;28;45236;-69
2022/04/29 01:25:37;;;;;;;995.80;929.25;;;;;;;10.22;54.78;102434.91;682892;28;127917;-69
2022/04/29 01:25:58;;;;;;;993.60;927.35;;;;;;;10.22;54.90;102434.03;683952;28;114777;-69
2022/04/29 01:26:20;;;;;;;995.13;928.95;;;;;;;10.24;54.99;102438.31;686119;28;22267;-69
2022/04/29 01:26:45;;;;;;;980.97;915.33;;;;;;;10.18;54.94;102425.34;682220;28;114860;-68
2022/04/29 01:27:10;;;;;;;976.72;911.28;;;;;;;10.15;55.14;102431.00;684663;28;46103;-69
2022/04/29 01:27:32;;;;;;;996.47;930.25;;;;;;;10.17;54.98;102437.16;680107;28;113503;-69
2022/04/29 01:27:54;;;;;;;998.55;932.42;;;;;;;10.14;55.08;102431.13;682243;28;44389;-69
2022/04/29 01:28:17;;;;;;;1005.75;939.13;;;;;;;10.13;55.19;102437.53;678841;28;92255;-68
2022/04/29 01:28:42;;;;;;;1006.08;939.47;;;;;;;10.09;55.16;102432.41;682396;28;66676;-68
2022/04/29 01:29:06;;;;;;;1003.13;936.75;;;;;;;10.05;55.39;102432.81;682440;28;69413;-69
2022/04/29 01:29:29;;;;;;;984.33;918.65;;;;;;;10.07;55.42;102438.91;680106;28;90321;-68
2022/04/29 01:29:57;;;;;;;995.28;929.10;;;;;;;10.06;55.20;102432.69;683749;28;69490;-68
2022/04/29 01:30:19;;;;;;;1005.13;938.70;;;;;;;10.04;55.49;102434.63;681219;28;138007;-69
2022/04/29 01:30:42;;;;;;;999.25;933.15;;;;;;;10.04;55.54;102431.94;680809;28;46404;-68
2022/04/29 01:31:06;;;;;;;992.88;926.88;;;;;;;10.03;55.52;102438.34;679757;28;66968;-69
2022/04/29 01:31:28;;;;;;;987.03;921.22;;;;;;;10.03;55.54;102441.03;678754;28;91801;-69
2022/04/29 01:31:52;;;;;;;993.45;927.40;;;;;;;9.99;55.52;102431.47;679091;28;46420;-69
2022/04/29 01:32:13;;;;;;;993.03;926.95;;;;;;;10.01;55.48;102440.28;679971;28;90700;-69
2022/04/29 01:32:39;;;;;;;988.63;922.83;;;;;;;10.03;55.75;102438.34;680287;28;92112;-69
2022/04/29 01:33:01;;;;;;;986.50;920.75;;;;;;;10.04;55.41;102437.31;680726;28;69418;-69
2022/04/29 01:33:24;;;;;;;999.97;933.47;;;;;;;10.04;55.58;102437.31;678703;28;45243;-69
2022/04/29 01:33:47;;;;;;;992.60;926.58;;;;;;;10.04;55.68;102433.78;679992;28;70344;-68
2022/04/29 01:34:10;;;;;;;984.70;919.08;;;;;;;10.02;55.65;102436.63;680991;28;91921;-69
2022/04/29 01:34:31;;;;;;;994.10;928.03;;;;;;;9.98;55.43;102428.91;679445;29;45084;-69
2022/04/29 01:34:54;;;;;;;992.00;925.97;;;;;;;10.00;55.64;102433.19;676645;29;44533;-69
2022/04/29 01:35:15;;;;;;;998.75;932.47;;;;;;;9.98;55.76;102428.91;674900;29;44331;-68
2022/04/29 01:35:37;;;;;;;1011.78;944.95;;;;;;;9.96;55.65;102431.75;677780;29;46322;-68
2022/04/29 01:35:58;;;;;;;1002.40;936.05;;;;;;;10.01;55.54;102434.88;677649;29;22401;-69
2022/04/29 01:36:20;;;;;;;996.10;930.00;;;;;;;10.02;55.65;102439.31;677810;28;21476;-68
2022/04/29 01:36:41;;;;;;;996.58;930.33;;;;;;;9.97;55.72;102419.09;682414;28;44384;-70
2022/04/29 01:37:03;;;;;;;1006.35;939.72;;;;;;;10.05;55.70;102435.50;681729;28;46447;-69
2022/04/29 01:37:26;;;;;;;990.97;924.88;;;;;;;10.05;55.51;102433.66;681205;28;46773;-69
2022/04/29 01:37:48;;;;;;;995.60;929.42;;;;;;;10.06;55.70;102429.97;679430;28;69768;-69
2022/04/29 01:38:10;;;;;;;999.45;933.30;;;;;;;10.06;55.64;102423.69;682076;28;46338;-69
2022/04/29 01:38:31;;;;;;;997.95;931.72;;;;;;;10.03;55.50;102415.88;679131;29;46388;-69
2022/04/29 01:38:54;;;;;;;990.13;924.13;;;;;;;10.08;55.50;102424.44;681387;28;70042;-69
2022/04/29 01:39:17;;;;;;;992.78;926.78;;;;;;;10.04;55.70;102429.22;681536;28;22393;-69
2022/04/29 01:39:38;;;;;;;995.65;929.40;;;;;;;10.08;55.51;102427.16;680021;28;46466;-69
2022/04/29 01:39:59;;;;;;;997.17;930.90;;;;;;;10.09;55.48;102423.44;679505;29;22367;-69
2022/04/29 01:40:21;;;;;;;1004.13;937.72;;;;;;;10.13;55.32;102430.28;680649;28;24000;-69
2022/04/29 01:40:43;;;;;;;987.78;922.03;;;;;;;10.14;55.10;102425.75;681343;28;46714;-69